sensor_id;sensor_type;location;lat;lon;timestamp;pressure;altitude;pressure_sealevel;temperature
78917;BMP280;68315;48.608;11.436;2023-05-07T00:00:34;97213.81;;;11.67
78917;BMP280;68315;48.608;11.436;2023-05-07T00:02:59;97214.66;;;11.62
78917;BMP280;68315;48.608;11.436;2023-05-07T00:05:25;97214.06;;;11.56
78917;BMP280;68315;48.608;11.436;2023-05-07T00:07:51;97210.19;;;11.51
78917;BMP280;68315;48.608;11.436;2023-05-07T00:10:17;97212.94;;;11.51
78917;BMP280;68315;48.608;11.436;2023-05-07T00:12:43;97207.59;;;11.53
78917;BMP280;68315;48.608;11.436;2023-05-07T00:15:08;97211.84;;;11.54
78917;BMP280;68315;48.608;11.436;2023-05-07T00:17:33;97213.34;;;11.55
78917;BMP280;68315;48.608;11.436;2023-05-07T00:19:59;97208.19;;;11.52
78917;BMP280;68315;48.608;11.436;2023-05-07T00:22:24;97202.03;;;11.46
78917;BMP280;68315;48.608;11.436;2023-05-07T00:24:50;97202.19;;;11.40
78917;BMP280;68315;48.608;11.436;2023-05-07T00:27:15;97204.00;;;11.38
78917;BMP280;68315;48.608;11.436;2023-05-07T00:29:41;97201.44;;;11.40
78917;BMP280;68315;48.608;11.436;2023-05-07T00:32:06;97194.34;;;11.44
78917;BMP280;68315;48.608;11.436;2023-05-07T00:34:31;97204.25;;;11.47
78917;BMP280;68315;48.608;11.436;2023-05-07T00:36:56;97206.28;;;11.47
78917;BMP280;68315;48.608;11.436;2023-05-07T00:39:22;97203.00;;;11.48
78917;BMP280;68315;48.608;11.436;2023-05-07T00:41:47;97203.00;;;11.48
78917;BMP280;68315;48.608;11.436;2023-05-07T00:44:13;97209.97;;;11.49
78917;BMP280;68315;48.608;11.436;2023-05-07T00:46:38;97203.72;;;11.49
78917;BMP280;68315;48.608;11.436;2023-05-07T00:49:04;97205.53;;;11.46
78917;BMP280;68315;48.608;11.436;2023-05-07T00:51:30;97205.34;;;11.44
78917;BMP280;68315;48.608;11.436;2023-05-07T00:53:55;97201.13;;;11.43
78917;BMP280;68315;48.608;11.436;2023-05-07T00:56:21;97203.13;;;11.43
78917;BMP280;68315;48.608;11.436;2023-05-07T00:58:47;97201.63;;;11.42
78917;BMP280;68315;48.608;11.436;2023-05-07T01:01:12;97206.94;;;11.40
78917;BMP280;68315;48.608;11.436;2023-05-07T01:03:38;97208.78;;;11.37
78917;BMP280;68315;48.608;11.436;2023-05-07T01:06:04;97205.56;;;11.33
78917;BMP280;68315;48.608;11.436;2023-05-07T01:08:30;97206.13;;;11.32
78917;BMP280;68315;48.608;11.436;2023-05-07T01:10:57;97206.88;;;11.32
78917;BMP280;68315;48.608;11.436;2023-05-07T01:13:22;97202.25;;;11.27
78917;BMP280;68315;48.608;11.436;2023-05-07T01:15:49;97198.50;;;11.25
78917;BMP280;68315;48.608;11.436;2023-05-07T01:18:15;97202.00;;;11.25
78917;BMP280;68315;48.608;11.436;2023-05-07T01:20:41;97192.63;;;11.21
78917;BMP280;68315;48.608;11.436;2023-05-07T01:23:06;97189.81;;;11.13
78917;BMP280;68315;48.608;11.436;2023-05-07T01:25:32;97192.25;;;11.04
78917;BMP280;68315;48.608;11.436;2023-05-07T01:27:57;97187.94;;;10.95
78917;BMP280;68315;48.608;11.436;2023-05-07T01:30:24;97181.81;;;10.89
78917;BMP280;68315;48.608;11.436;2023-05-07T01:35:26;97181.94;;;10.83
78917;BMP280;68315;48.608;11.436;2023-05-07T01:37:52;97178.88;;;10.87
78917;BMP280;68315;48.608;11.436;2023-05-07T01:40:18;97178.88;;;10.87
78917;BMP280;68315;48.608;11.436;2023-05-07T01:42:44;97175.38;;;10.86
78917;BMP280;68315;48.608;11.436;2023-05-07T01:45:10;97182.50;;;10.82
78917;BMP280;68315;48.608;11.436;2023-05-07T01:47:37;97182.38;;;10.74
78917;BMP280;68315;48.608;11.436;2023-05-07T01:50:05;97185.78;;;10.67
78917;BMP280;68315;48.608;11.436;2023-05-07T01:52:30;97186.41;;;10.73
78917;BMP280;68315;48.608;11.436;2023-05-07T01:54:56;97181.22;;;10.70
78917;BMP280;68315;48.608;11.436;2023-05-07T01:57:21;97189.28;;;10.68
78917;BMP280;68315;48.608;11.436;2023-05-07T01:59:46;97184.72;;;10.70
78917;BMP280;68315;48.608;11.436;2023-05-07T02:02:11;97192.63;;;10.74
78917;BMP280;68315;48.608;11.436;2023-05-07T02:04:37;97183.13;;;10.75
78917;BMP280;68315;48.608;11.436;2023-05-07T02:07:02;97185.88;;;10.75
78917;BMP280;68315;48.608;11.436;2023-05-07T02:09:27;97181.13;;;10.75
78917;BMP280;68315;48.608;11.436;2023-05-07T02:11:53;97184.63;;;10.76
78917;BMP280;68315;48.608;11.436;2023-05-07T02:14:18;97177.81;;;10.77
78917;BMP280;68315;48.608;11.436;2023-05-07T02:16:45;97191.56;;;10.77
78917;BMP280;68315;48.608;11.436;2023-05-07T02:19:10;97191.38;;;10.75
78917;BMP280;68315;48.608;11.436;2023-05-07T02:21:35;97190.94;;;10.71
78917;BMP280;68315;48.608;11.436;2023-05-07T02:24:01;97189.47;;;10.70
78917;BMP280;68315;48.608;11.436;2023-05-07T02:26:26;97185.03;;;10.67
78917;BMP280;68315;48.608;11.436;2023-05-07T02:28:51;97185.56;;;10.65
78917;BMP280;68315;48.608;11.436;2023-05-07T02:31:17;97187.59;;;10.65
78917;BMP280;68315;48.608;11.436;2023-05-07T02:33:42;97186.63;;;10.62
78917;BMP280;68315;48.608;11.436;2023-05-07T02:36:08;97183.34;;;10.64
78917;BMP280;68315;48.608;11.436;2023-05-07T02:38:34;97188.63;;;10.62
78917;BMP280;68315;48.608;11.436;2023-05-07T02:40:59;97195.00;;;10.57
78917;BMP280;68315;48.608;11.436;2023-05-07T02:43:25;97190.88;;;10.50
78917;BMP280;68315;48.608;11.436;2023-05-07T02:46:06;97199.75;;;10.43
78917;BMP280;68315;48.608;11.436;2023-05-07T02:48:32;97195.28;;;10.40
78917;BMP280;68315;48.608;11.436;2023-05-07T02:50:58;97200.78;;;10.40
78917;BMP280;68315;48.608;11.436;2023-05-07T02:53:24;97187.78;;;10.41
78917;BMP280;68315;48.608;11.436;2023-05-07T02:55:52;97196.03;;;10.41
78917;BMP280;68315;48.608;11.436;2023-05-07T02:58:17;97190.53;;;10.41
78917;BMP280;68315;48.608;11.436;2023-05-07T03:00:42;97191.81;;;10.40
78917;BMP280;68315;48.608;11.436;2023-05-07T03:03:08;97187.38;;;10.37
78917;BMP280;68315;48.608;11.436;2023-05-07T03:05:33;97184.94;;;10.33
78917;BMP280;68315;48.608;11.436;2023-05-07T03:07:58;97189.81;;;10.27
78917;BMP280;68315;48.608;11.436;2023-05-07T03:10:23;97184.09;;;10.25
78917;BMP280;68315;48.608;11.436;2023-05-07T03:12:49;97172.91;;;10.23
78917;BMP280;68315;48.608;11.436;2023-05-07T03:15:14;97179.03;;;10.16
78917;BMP280;68315;48.608;11.436;2023-05-07T03:17:39;97179.13;;;10.10
78917;BMP280;68315;48.608;11.436;2023-05-07T03:20:05;97183.66;;;10.08
78917;BMP280;68315;48.608;11.436;2023-05-07T03:22:31;97185.66;;;10.07
78917;BMP280;68315;48.608;11.436;2023-05-07T03:24:56;97186.31;;;10.00
78917;BMP280;68315;48.608;11.436;2023-05-07T03:27:21;97187.75;;;9.88
78917;BMP280;68315;48.608;11.436;2023-05-07T03:29:47;97182.03;;;9.86
78917;BMP280;68315;48.608;11.436;2023-05-07T03:32:12;97188.25;;;9.87
78917;BMP280;68315;48.608;11.436;2023-05-07T03:34:38;97181.72;;;9.90
78917;BMP280;68315;48.608;11.436;2023-05-07T03:37:03;97178.69;;;9.93
78917;BMP280;68315;48.608;11.436;2023-05-07T03:39:28;97180.56;;;9.98
78917;BMP280;68315;48.608;11.436;2023-05-07T03:41:53;97190.09;;;9.97
78917;BMP280;68315;48.608;11.436;2023-05-07T03:44:19;97196.09;;;9.96
78917;BMP280;68315;48.608;11.436;2023-05-07T03:46:45;97191.44;;;9.91
78917;BMP280;68315;48.608;11.436;2023-05-07T03:49:10;97202.22;;;9.89
78917;BMP280;68315;48.608;11.436;2023-05-07T03:51:35;97193.97;;;9.89
78917;BMP280;68315;48.608;11.436;2023-05-07T03:54:01;97204.44;;;9.90
78917;BMP280;68315;48.608;11.436;2023-05-07T03:56:26;97205.69;;;9.89
78917;BMP280;68315;48.608;11.436;2023-05-07T03:58:52;97206.41;;;9.90
78917;BMP280;68315;48.608;11.436;2023-05-07T04:01:18;97212.44;;;9.88
78917;BMP280;68315;48.608;11.436;2023-05-07T04:03:43;97209.69;;;9.88
78917;BMP280;68315;48.608;11.436;2023-05-07T04:06:08;97226.16;;;9.88
78917;BMP280;68315;48.608;11.436;2023-05-07T04:08:33;97222.69;;;9.88
78917;BMP280;68315;48.608;11.436;2023-05-07T04:10:59;97223.94;;;9.87
78917;BMP280;68315;48.608;11.436;2023-05-07T04:13:24;97227.19;;;9.85
78917;BMP280;68315;48.608;11.436;2023-05-07T04:15:51;97218.97;;;9.85
78917;BMP280;68315;48.608;11.436;2023-05-07T04:18:16;97213.47;;;9.85
78917;BMP280;68315;48.608;11.436;2023-05-07T04:20:41;97213.28;;;9.83
78917;BMP280;68315;48.608;11.436;2023-05-07T04:23:07;97212.53;;;9.83
78917;BMP280;68315;48.608;11.436;2023-05-07T04:25:32;97213.78;;;9.82
78917;BMP280;68315;48.608;11.436;2023-05-07T04:27:58;97221.72;;;9.85
78917;BMP280;68315;48.608;11.436;2023-05-07T04:30:23;97219.94;;;9.88
78917;BMP280;68315;48.608;11.436;2023-05-07T04:32:48;97215.19;;;9.88
78917;BMP280;68315;48.608;11.436;2023-05-07T04:35:14;97214.38;;;9.93
78917;BMP280;68315;48.608;11.436;2023-05-07T04:37:39;97216.50;;;10.00
78917;BMP280;68315;48.608;11.436;2023-05-07T04:40:06;97216.81;;;10.10
78917;BMP280;68315;48.608;11.436;2023-05-07T04:42:31;97208.91;;;10.20
78917;BMP280;68315;48.608;11.436;2023-05-07T04:44:57;97210.19;;;10.32
78917;BMP280;68315;48.608;11.436;2023-05-07T04:47:22;97204.50;;;10.43
78917;BMP280;68315;48.608;11.436;2023-05-07T04:49:47;97205.53;;;10.53
78917;BMP280;68315;48.608;11.436;2023-05-07T04:52:12;97210.06;;;10.63
78917;BMP280;68315;48.608;11.436;2023-05-07T04:54:38;97218.19;;;10.69
78917;BMP280;68315;48.608;11.436;2023-05-07T04:57:04;97215.03;;;10.78
78917;BMP280;68315;48.608;11.436;2023-05-07T04:59:30;97219.44;;;10.94
78917;BMP280;68315;48.608;11.436;2023-05-07T05:01:55;97220.16;;;11.08
78917;BMP280;68315;48.608;11.436;2023-05-07T05:04:20;97213.06;;;11.12
78917;BMP280;68315;48.608;11.436;2023-05-07T05:06:45;97221.53;;;11.14
78917;BMP280;68315;48.608;11.436;2023-05-07T05:09:11;97233.28;;;11.15
78917;BMP280;68315;48.608;11.436;2023-05-07T05:11:36;97234.03;;;11.15
78917;BMP280;68315;48.608;11.436;2023-05-07T05:14:01;97226.16;;;11.19
78917;BMP280;68315;48.608;11.436;2023-05-07T05:16:27;97223.63;;;11.21
78917;BMP280;68315;48.608;11.436;2023-05-07T05:18:52;97233.22;;;11.28
78917;BMP280;68315;48.608;11.436;2023-05-07T05:21:19;97234.28;;;11.38
78917;BMP280;68315;48.608;11.436;2023-05-07T05:23:44;97223.00;;;11.49
78917;BMP280;68315;48.608;11.436;2023-05-07T05:26:10;97231.53;;;11.58
78917;BMP280;68315;48.608;11.436;2023-05-07T05:28:35;97228.72;;;11.71
78917;BMP280;68315;48.608;11.436;2023-05-07T05:31:01;97236.38;;;11.86
78917;BMP280;68315;48.608;11.436;2023-05-07T05:33:26;97232.78;;;11.99
78917;BMP280;68315;48.608;11.436;2023-05-07T05:35:53;97218.75;;;12.10
78917;BMP280;68315;48.608;11.436;2023-05-07T05:38:19;97220.41;;;12.13
78917;BMP280;68315;48.608;11.436;2023-05-07T05:40:46;97228.53;;;12.18
78917;BMP280;68315;48.608;11.436;2023-05-07T05:43:11;97232.06;;;12.26
78917;BMP280;68315;48.608;11.436;2023-05-07T05:45:36;97225.69;;;12.31
78917;BMP280;68315;48.608;11.436;2023-05-07T05:48:01;97233.81;;;12.37
78917;BMP280;68315;48.608;11.436;2023-05-07T05:50:27;97235.69;;;12.42
78917;BMP280;68315;48.608;11.436;2023-05-07T05:52:52;97231.81;;;12.45
78917;BMP280;68315;48.608;11.436;2023-05-07T05:55:17;97229.84;;;12.53
78917;BMP280;68315;48.608;11.436;2023-05-07T05:57:42;97233.22;;;12.67
78917;BMP280;68315;48.608;11.436;2023-05-07T06:00:08;97230.00;;;12.83
78917;BMP280;68315;48.608;11.436;2023-05-07T06:02:34;97238.72;;;13.02
78917;BMP280;68315;48.608;11.436;2023-05-07T06:04:59;97241.88;;;13.14
78917;BMP280;68315;48.608;11.436;2023-05-07T06:07:24;97244.47;;;13.19
78917;BMP280;68315;48.608;11.436;2023-05-07T06:09:50;97246.69;;;13.21
78917;BMP280;68315;48.608;11.436;2023-05-07T06:12:15;97240.63;;;13.22
78917;BMP280;68315;48.608;11.436;2023-05-07T06:14:43;97234.00;;;13.25
78917;BMP280;68315;48.608;11.436;2023-05-07T06:17:08;97235.84;;;13.30
78917;BMP280;68315;48.608;11.436;2023-05-07T06:19:33;97241.59;;;13.40
78917;BMP280;68315;48.608;11.436;2023-05-07T06:21:59;97244.19;;;13.53
78917;BMP280;68315;48.608;11.436;2023-05-07T06:24:26;97249.56;;;13.66
78917;BMP280;68315;48.608;11.436;2023-05-07T06:26:51;97254.72;;;13.85
78917;BMP280;68315;48.608;11.436;2023-05-07T06:29:16;97246.97;;;14.13
78917;BMP280;68315;48.608;11.436;2023-05-07T06:31:45;97255.56;;;14.48
78917;BMP280;68315;48.608;11.436;2023-05-07T06:34:10;97254.91;;;14.79
78917;BMP280;68315;48.608;11.436;2023-05-07T06:36:39;97257.69;;;15.19
78917;BMP280;68315;48.608;11.436;2023-05-07T06:39:04;97259.88;;;15.53
78917;BMP280;68315;48.608;11.436;2023-05-07T06:41:30;97262.22;;;15.88
78917;BMP280;68315;48.608;11.436;2023-05-07T06:43:55;97258.78;;;16.22
78917;BMP280;68315;48.608;11.436;2023-05-07T06:46:20;97257.16;;;16.53
78917;BMP280;68315;48.608;11.436;2023-05-07T06:48:46;97271.97;;;16.82
78917;BMP280;68315;48.608;11.436;2023-05-07T06:51:11;97262.06;;;17.06
78917;BMP280;68315;48.608;11.436;2023-05-07T06:53:36;97267.31;;;17.28
78917;BMP280;68315;48.608;11.436;2023-05-07T06:56:02;97264.88;;;17.42
78917;BMP280;68315;48.608;11.436;2023-05-07T06:58:27;97258.91;;;17.45
78917;BMP280;68315;48.608;11.436;2023-05-07T07:00:52;97261.63;;;17.63
78917;BMP280;68315;48.608;11.436;2023-05-07T07:03:18;97255.34;;;17.72
78917;BMP280;68315;48.608;11.436;2023-05-07T07:06:01;97269.34;;;17.64
78917;BMP280;68315;48.608;11.436;2023-05-07T07:08:27;97272.91;;;17.74
78917;BMP280;68315;48.608;11.436;2023-05-07T07:10:52;97271.31;;;17.81
78917;BMP280;68315;48.608;11.436;2023-05-07T07:13:23;97271.75;;;17.77
78917;BMP280;68315;48.608;11.436;2023-05-07T07:15:48;97259.31;;;17.69
78917;BMP280;68315;48.608;11.436;2023-05-07T07:18:14;97272.75;;;17.72
78917;BMP280;68315;48.608;11.436;2023-05-07T07:20:41;97264.44;;;17.82
78917;BMP280;68315;48.608;11.436;2023-05-07T07:23:09;97267.28;;;18.01
78917;BMP280;68315;48.608;11.436;2023-05-07T07:25:34;97269.50;;;18.21
78917;BMP280;68315;48.608;11.436;2023-05-07T07:28:02;97263.34;;;18.42
78917;BMP280;68315;48.608;11.436;2023-05-07T07:30:28;97265.41;;;18.70
78917;BMP280;68315;48.608;11.436;2023-05-07T07:32:53;97262.63;;;18.89
78917;BMP280;68315;48.608;11.436;2023-05-07T07:35:19;97259.94;;;19.01
78917;BMP280;68315;48.608;11.436;2023-05-07T07:37:44;97263.00;;;19.14
78917;BMP280;68315;48.608;11.436;2023-05-07T07:40:11;97265.44;;;19.29
78917;BMP280;68315;48.608;11.436;2023-05-07T07:42:36;97264.88;;;19.52
78917;BMP280;68315;48.608;11.436;2023-05-07T07:45:05;97273.31;;;19.73
78917;BMP280;68315;48.608;11.436;2023-05-07T07:50:52;97273.94;;;20.35
78917;BMP280;68315;48.608;11.436;2023-05-07T07:53:18;97269.56;;;20.64
78917;BMP280;68315;48.608;11.436;2023-05-07T08:01:42;97270.03;;;21.05
78917;BMP280;68315;48.608;11.436;2023-05-07T08:04:08;97275.16;;;21.32
78917;BMP280;68315;48.608;11.436;2023-05-07T08:09:44;97272.59;;;21.70
78917;BMP280;68315;48.608;11.436;2023-05-07T08:12:09;97272.94;;;21.99
78917;BMP280;68315;48.608;11.436;2023-05-07T08:14:43;97272.38;;;22.26
78917;BMP280;68315;48.608;11.436;2023-05-07T08:17:09;97268.69;;;22.60
78917;BMP280;68315;48.608;11.436;2023-05-07T08:19:35;97274.91;;;22.59
78917;BMP280;68315;48.608;11.436;2023-05-07T08:22:02;97274.94;;;22.72
78917;BMP280;68315;48.608;11.436;2023-05-07T08:24:27;97277.25;;;22.76
78917;BMP280;68315;48.608;11.436;2023-05-07T08:26:52;97270.91;;;22.75
78917;BMP280;68315;48.608;11.436;2023-05-07T08:29:18;97272.97;;;22.75
78917;BMP280;68315;48.608;11.436;2023-05-07T08:31:43;97272.94;;;23.00
78917;BMP280;68315;48.608;11.436;2023-05-07T08:34:09;97274.44;;;23.28
78917;BMP280;68315;48.608;11.436;2023-05-07T08:36:35;97266.38;;;23.34
78917;BMP280;68315;48.608;11.436;2023-05-07T08:39:00;97257.22;;;23.47
78917;BMP280;68315;48.608;11.436;2023-05-07T08:41:26;97257.94;;;23.47
78917;BMP280;68315;48.608;11.436;2023-05-07T08:43:51;97265.13;;;23.37
78917;BMP280;68315;48.608;11.436;2023-05-07T08:46:21;97267.72;;;23.46
78917;BMP280;68315;48.608;11.436;2023-05-07T08:48:50;97262.09;;;23.73
78917;BMP280;68315;48.608;11.436;2023-05-07T08:51:18;97256.75;;;23.93
78917;BMP280;68315;48.608;11.436;2023-05-07T08:53:44;97256.75;;;23.93
78917;BMP280;68315;48.608;11.436;2023-05-07T08:56:11;97257.59;;;23.82
78917;BMP280;68315;48.608;11.436;2023-05-07T08:58:36;97257.22;;;23.74
78917;BMP280;68315;48.608;11.436;2023-05-07T09:01:10;97257.22;;;23.74
78917;BMP280;68315;48.608;11.436;2023-05-07T09:03:38;97261.47;;;23.75
78917;BMP280;68315;48.608;11.436;2023-05-07T09:06:04;97266.13;;;23.84
78917;BMP280;68315;48.608;11.436;2023-05-07T09:08:29;97277.09;;;24.07
78917;BMP280;68315;48.608;11.436;2023-05-07T09:10:55;97272.09;;;24.48
78917;BMP280;68315;48.608;11.436;2023-05-07T09:13:20;97266.91;;;24.87
78917;BMP280;68315;48.608;11.436;2023-05-07T09:15:45;97258.28;;;25.14
78917;BMP280;68315;48.608;11.436;2023-05-07T09:18:12;97267.63;;;25.34
78917;BMP280;68315;48.608;11.436;2023-05-07T09:20:37;97270.09;;;25.59
78917;BMP280;68315;48.608;11.436;2023-05-07T09:23:03;97264.88;;;25.85
78917;BMP280;68315;48.608;11.436;2023-05-07T09:25:30;97262.22;;;25.71
78917;BMP280;68315;48.608;11.436;2023-05-07T09:27:56;97257.59;;;25.47
78917;BMP280;68315;48.608;11.436;2023-05-07T09:30:21;97258.56;;;25.20
78917;BMP280;68315;48.608;11.436;2023-05-07T09:32:46;97249.38;;;24.58
78917;BMP280;68315;48.608;11.436;2023-05-07T09:35:17;97253.50;;;24.12
78917;BMP280;68315;48.608;11.436;2023-05-07T09:37:43;97253.66;;;24.30
78917;BMP280;68315;48.608;11.436;2023-05-07T09:40:20;97247.00;;;24.52
78917;BMP280;68315;48.608;11.436;2023-05-07T09:42:46;97253.94;;;25.11
78917;BMP280;68315;48.608;11.436;2023-05-07T09:45:12;97249.88;;;25.80
78917;BMP280;68315;48.608;11.436;2023-05-07T09:47:38;97250.47;;;26.12
78917;BMP280;68315;48.608;11.436;2023-05-07T09:50:06;97250.13;;;25.69
78917;BMP280;68315;48.608;11.436;2023-05-07T09:52:34;97252.56;;;25.28
78917;BMP280;68315;48.608;11.436;2023-05-07T09:55:01;97243.56;;;25.31
78917;BMP280;68315;48.608;11.436;2023-05-07T09:57:28;97258.69;;;25.55
78917;BMP280;68315;48.608;11.436;2023-05-07T09:59:55;97251.34;;;25.48
78917;BMP280;68315;48.608;11.436;2023-05-07T10:02:21;97260.53;;;25.66
78917;BMP280;68315;48.608;11.436;2023-05-07T10:04:48;97248.22;;;26.09
78917;BMP280;68315;48.608;11.436;2023-05-07T10:07:13;97248.59;;;26.54
78917;BMP280;68315;48.608;11.436;2023-05-07T10:09:39;97239.50;;;26.92
78917;BMP280;68315;48.608;11.436;2023-05-07T10:12:07;97246.59;;;27.13
78917;BMP280;68315;48.608;11.436;2023-05-07T10:14:33;97248.94;;;26.81
78917;BMP280;68315;48.608;11.436;2023-05-07T10:16:59;97245.00;;;26.34
78917;BMP280;68315;48.608;11.436;2023-05-07T10:19:25;97248.34;;;26.48
78917;BMP280;68315;48.608;11.436;2023-05-07T10:21:54;97241.09;;;26.78
78917;BMP280;68315;48.608;11.436;2023-05-07T10:24:25;97243.19;;;27.16
78917;BMP280;68315;48.608;11.436;2023-05-07T10:26:52;97248.28;;;27.41
78917;BMP280;68315;48.608;11.436;2023-05-07T10:31:58;97237.78;;;27.03
78917;BMP280;68315;48.608;11.436;2023-05-07T10:34:29;97238.25;;;26.78
78917;BMP280;68315;48.608;11.436;2023-05-07T10:36:58;97235.44;;;26.23
78917;BMP280;68315;48.608;11.436;2023-05-07T10:39:23;97240.88;;;25.84
78917;BMP280;68315;48.608;11.436;2023-05-07T10:41:49;97235.31;;;25.35
78917;BMP280;68315;48.608;11.436;2023-05-07T10:44:30;97239.50;;;25.67
78917;BMP280;68315;48.608;11.436;2023-05-07T10:49:29;97240.47;;;25.74
78917;BMP280;68315;48.608;11.436;2023-05-07T10:52:15;97231.28;;;25.56
78917;BMP280;68315;48.608;11.436;2023-05-07T10:54:41;97234.03;;;25.38
78917;BMP280;68315;48.608;11.436;2023-05-07T10:57:33;97232.25;;;25.29
78917;BMP280;68315;48.608;11.436;2023-05-07T11:00:01;97233.25;;;25.87
78917;BMP280;68315;48.608;11.436;2023-05-07T11:05:28;97226.47;;;26.29
78917;BMP280;68315;48.608;11.436;2023-05-07T11:07:58;97236.59;;;26.53
78917;BMP280;68315;48.608;11.436;2023-05-07T11:10:51;97231.19;;;26.96
78917;BMP280;68315;48.608;11.436;2023-05-07T11:13:17;97232.44;;;27.32
78917;BMP280;68315;48.608;11.436;2023-05-07T11:15:47;97222.41;;;27.68
78917;BMP280;68315;48.608;11.436;2023-05-07T11:18:15;97224.88;;;27.37
78917;BMP280;68315;48.608;11.436;2023-05-07T11:20:47;97230.22;;;27.09
78917;BMP280;68315;48.608;11.436;2023-05-07T11:26:08;97229.66;;;27.13
78917;BMP280;68315;48.608;11.436;2023-05-07T11:28:38;97219.63;;;27.49
78917;BMP280;68315;48.608;11.436;2023-05-07T11:31:04;97223.47;;;27.79
78917;BMP280;68315;48.608;11.436;2023-05-07T11:33:30;97216.44;;;28.25
78917;BMP280;68315;48.608;11.436;2023-05-07T11:35:56;97216.91;;;28.41
78917;BMP280;68315;48.608;11.436;2023-05-07T11:38:21;97226.44;;;28.28
78917;BMP280;68315;48.608;11.436;2023-05-07T11:40:49;97220.28;;;27.90
78917;BMP280;68315;48.608;11.436;2023-05-07T11:43:14;97215.25;;;27.65
78917;BMP280;68315;48.608;11.436;2023-05-07T11:45:40;97216.75;;;27.47
78917;BMP280;68315;48.608;11.436;2023-05-07T11:48:05;97213.47;;;27.76
78917;BMP280;68315;48.608;11.436;2023-05-07T11:50:30;97215.91;;;28.07
78917;BMP280;68315;48.608;11.436;2023-05-07T11:52:56;97215.78;;;28.27
78917;BMP280;68315;48.608;11.436;2023-05-07T11:55:21;97212.28;;;27.83
78917;BMP280;68315;48.608;11.436;2023-05-07T11:57:49;97211.09;;;27.47
78917;BMP280;68315;48.608;11.436;2023-05-07T12:00:15;97206.22;;;27.28
78917;BMP280;68315;48.608;11.436;2023-05-07T12:02:41;97215.72;;;27.38
78917;BMP280;68315;48.608;11.436;2023-05-07T12:05:07;97207.50;;;27.88
78917;BMP280;68315;48.608;11.436;2023-05-07T12:07:33;97206.25;;;28.38
78917;BMP280;68315;48.608;11.436;2023-05-07T12:09:59;97206.56;;;28.73
78917;BMP280;68315;48.608;11.436;2023-05-07T12:12:24;97199.44;;;28.72
78917;BMP280;68315;48.608;11.436;2023-05-07T12:14:49;97198.75;;;28.48
78917;BMP280;68315;48.608;11.436;2023-05-07T12:17:16;97197.00;;;28.61
78917;BMP280;68315;48.608;11.436;2023-05-07T12:19:42;97193.16;;;28.50
78917;BMP280;68315;48.608;11.436;2023-05-07T12:22:08;97193.06;;;28.46
78917;BMP280;68315;48.608;11.436;2023-05-07T12:24:56;97201.94;;;28.37
78917;BMP280;68315;48.608;11.436;2023-05-07T12:27:22;97194.19;;;27.90
78917;BMP280;68315;48.608;11.436;2023-05-07T12:29:49;97201.38;;;27.52
78917;BMP280;68315;48.608;11.436;2023-05-07T12:32:19;97195.34;;;27.20
78917;BMP280;68315;48.608;11.436;2023-05-07T12:34:45;97198.22;;;27.42
78917;BMP280;68315;48.608;11.436;2023-05-07T12:37:11;97200.78;;;27.77
78917;BMP280;68315;48.608;11.436;2023-05-07T12:39:37;97187.09;;;28.13
78917;BMP280;68315;48.608;11.436;2023-05-07T12:42:03;97190.28;;;28.48
78917;BMP280;68315;48.608;11.436;2023-05-07T12:44:30;97186.13;;;28.77
78917;BMP280;68315;48.608;11.436;2023-05-07T12:46:56;97186.41;;;28.87
78917;BMP280;68315;48.608;11.436;2023-05-07T12:49:23;97180.00;;;28.84
78917;BMP280;68315;48.608;11.436;2023-05-07T12:51:48;97178.28;;;28.99
78917;BMP280;68315;48.608;11.436;2023-05-07T12:54:30;97177.66;;;29.02
78917;BMP280;68315;48.608;11.436;2023-05-07T12:57:06;97171.31;;;29.04
78917;BMP280;68315;48.608;11.436;2023-05-07T12:59:36;97172.03;;;29.04
78917;BMP280;68315;48.608;11.436;2023-05-07T13:02:02;97170.88;;;29.13
78917;BMP280;68315;48.608;11.436;2023-05-07T13:04:27;97164.31;;;29.07
78917;BMP280;68315;48.608;11.436;2023-05-07T13:06:52;97172.97;;;28.85
78917;BMP280;68315;48.608;11.436;2023-05-07T13:09:18;97171.13;;;28.70
78917;BMP280;68315;48.608;11.436;2023-05-07T13:11:43;97160.63;;;28.75
78917;BMP280;68315;48.608;11.436;2023-05-07T13:14:08;97168.41;;;28.74
78917;BMP280;68315;48.608;11.436;2023-05-07T13:16:33;97161.13;;;28.67
78917;BMP280;68315;48.608;11.436;2023-05-07T13:18:59;97162.63;;;28.70
78917;BMP280;68315;48.608;11.436;2023-05-07T13:21:24;97164.56;;;28.64
78917;BMP280;68315;48.608;11.436;2023-05-07T13:23:50;97164.59;;;28.40
78917;BMP280;68315;48.608;11.436;2023-05-07T13:26:15;97161.22;;;28.22
78917;BMP280;68315;48.608;11.436;2023-05-07T13:28:41;97157.31;;;28.10
78917;BMP280;68315;48.608;11.436;2023-05-07T13:31:07;97151.09;;;27.92
78917;BMP280;68315;48.608;11.436;2023-05-07T13:33:32;97151.25;;;27.74
78917;BMP280;68315;48.608;11.436;2023-05-07T13:35:57;97154.75;;;27.72
78917;BMP280;68315;48.608;11.436;2023-05-07T13:38:22;97150.13;;;27.83
78917;BMP280;68315;48.608;11.436;2023-05-07T13:40:48;97158.50;;;27.79
78917;BMP280;68315;48.608;11.436;2023-05-07T13:43:13;97154.06;;;27.50
78917;BMP280;68315;48.608;11.436;2023-05-07T13:45:39;97149.47;;;27.41
78917;BMP280;68315;48.608;11.436;2023-05-07T13:48:04;97146.25;;;27.29
78917;BMP280;68315;48.608;11.436;2023-05-07T13:50:30;97149.22;;;27.12
78917;BMP280;68315;48.608;11.436;2023-05-07T13:52:55;97152.59;;;27.08
78917;BMP280;68315;48.608;11.436;2023-05-07T13:55:22;97156.75;;;27.05
78917;BMP280;68315;48.608;11.436;2023-05-07T13:57:54;97149.41;;;26.98
78917;BMP280;68315;48.608;11.436;2023-05-07T14:00:20;97160.66;;;26.77
78917;BMP280;68315;48.608;11.436;2023-05-07T14:02:46;97155.56;;;26.73
78917;BMP280;68315;48.608;11.436;2023-05-07T14:05:14;97168.88;;;26.71
78917;BMP280;68315;48.608;11.436;2023-05-07T14:07:39;97158.91;;;26.68
78917;BMP280;68315;48.608;11.436;2023-05-07T14:10:05;97165.28;;;26.68
78917;BMP280;68315;48.608;11.436;2023-05-07T14:12:32;97168.47;;;26.78
78917;BMP280;68315;48.608;11.436;2023-05-07T14:14:57;97168.03;;;26.86
78917;BMP280;68315;48.608;11.436;2023-05-07T14:17:23;97166.84;;;26.93